sensor_id;sensor_type;location;lat;lon;timestamp;P1;durP1;ratioP1;P2;durP2;ratioP2
59388;SDS011;51830;45.202;19.720;2023-04-03T00:02:13;10.90;;;2.90;;
59388;SDS011;51830;45.202;19.720;2023-04-03T00:04:39;8.50;;;2.78;;
59388;SDS011;51830;45.202;19.720;2023-04-03T00:07:06;10.93;;;3.08;;
59388;SDS011;51830;45.202;19.720;2023-04-03T00:09:32;11.63;;;3.45;;
59388;SDS011;51830;45.202;19.720;2023-04-03T00:11:58;13.48;;;3.83;;
59388;SDS011;51830;45.202;19.720;2023-04-03T00:14:25;14.13;;;3.65;;
59388;SDS011;51830;45.202;19.720;2023-04-03T00:16:52;14.25;;;4.30;;
59388;SDS011;51830;45.202;19.720;2023-04-03T00:19:18;12.02;;;3.53;;
59388;SDS011;51830;45.202;19.720;2023-04-03T00:21:44;11.88;;;3.88;;
59388;SDS011;51830;45.202;19.720;2023-04-03T00:24:11;12.98;;;3.55;;
59388;SDS011;51830;45.202;19.720;2023-04-03T00:26:37;15.20;;;4.05;;
59388;SDS011;51830;45.202;19.720;2023-04-03T00:29:03;16.52;;;4.25;;
59388;SDS011;51830;45.202;19.720;2023-04-03T00:31:29;14.75;;;3.63;;
59388;SDS011;51830;45.202;19.720;2023-04-03T00:33:56;15.13;;;4.38;;
59388;SDS011;51830;45.202;19.720;2023-04-03T00:36:22;12.55;;;4.18;;
59388;SDS011;51830;45.202;19.720;2023-04-03T00:38:48;11.90;;;3.35;;
59388;SDS011;51830;45.202;19.720;2023-04-03T00:41:14;12.88;;;3.95;;
59388;SDS011;51830;45.202;19.720;2023-04-03T00:43:40;13.90;;;4.10;;
59388;SDS011;51830;45.202;19.720;2023-04-03T00:46:06;9.68;;;2.90;;
59388;SDS011;51830;45.202;19.720;2023-04-03T00:48:38;7.35;;;2.42;;
59388;SDS011;51830;45.202;19.720;2023-04-03T00:51:06;13.13;;;3.95;;
59388;SDS011;51830;45.202;19.720;2023-04-03T00:53:34;14.27;;;4.18;;
59388;SDS011;51830;45.202;19.720;2023-04-03T00:56:01;11.85;;;3.47;;
59388;SDS011;51830;45.202;19.720;2023-04-03T00:58:34;13.15;;;4.07;;
59388;SDS011;51830;45.202;19.720;2023-04-03T01:01:03;12.30;;;3.87;;
59388;SDS011;51830;45.202;19.720;2023-04-03T01:03:31;16.73;;;5.15;;
59388;SDS011;51830;45.202;19.720;2023-04-03T01:05:57;13.48;;;3.83;;
59388;SDS011;51830;45.202;19.720;2023-04-03T01:08:23;22.08;;;4.38;;
59388;SDS011;51830;45.202;19.720;2023-04-03T01:10:50;14.32;;;4.07;;
59388;SDS011;51830;45.202;19.720;2023-04-03T01:13:20;14.88;;;4.30;;
59388;SDS011;51830;45.202;19.720;2023-04-03T01:15:47;12.18;;;4.15;;
59388;SDS011;51830;45.202;19.720;2023-04-03T01:18:13;9.32;;;2.72;;
59388;SDS011;51830;45.202;19.720;2023-04-03T01:20:50;13.20;;;3.63;;
59388;SDS011;51830;45.202;19.720;2023-04-03T01:25:54;16.30;;;5.00;;
59388;SDS011;51830;45.202;19.720;2023-04-03T01:28:23;14.35;;;4.50;;
59388;SDS011;51830;45.202;19.720;2023-04-03T01:30:53;14.52;;;4.18;;
59388;SDS011;51830;45.202;19.720;2023-04-03T01:33:21;10.95;;;3.72;;
59388;SDS011;51830;45.202;19.720;2023-04-03T01:35:47;9.88;;;2.85;;
59388;SDS011;51830;45.202;19.720;2023-04-03T01:38:13;12.73;;;4.15;;
59388;SDS011;51830;45.202;19.720;2023-04-03T01:40:40;17.95;;;4.13;;
59388;SDS011;51830;45.202;19.720;2023-04-03T01:43:06;13.40;;;4.10;;
59388;SDS011;51830;45.202;19.720;2023-04-03T01:45:32;6.35;;;1.92;;
59388;SDS011;51830;45.202;19.720;2023-04-03T01:47:59;11.75;;;3.92;;
59388;SDS011;51830;45.202;19.720;2023-04-03T01:50:25;14.00;;;3.80;;
59388;SDS011;51830;45.202;19.720;2023-04-03T01:52:51;15.82;;;4.80;;
59388;SDS011;51830;45.202;19.720;2023-04-03T01:55:18;12.55;;;4.20;;
59388;SDS011;51830;45.202;19.720;2023-04-03T01:57:44;15.18;;;4.53;;
59388;SDS011;51830;45.202;19.720;2023-04-03T02:00:11;11.48;;;3.63;;
59388;SDS011;51830;45.202;19.720;2023-04-03T02:02:37;16.25;;;4.50;;
59388;SDS011;51830;45.202;19.720;2023-04-03T02:05:04;12.48;;;3.70;;
59388;SDS011;51830;45.202;19.720;2023-04-03T02:07:30;13.50;;;4.22;;
59388;SDS011;51830;45.202;19.720;2023-04-03T02:09:56;13.88;;;4.75;;
59388;SDS011;51830;45.202;19.720;2023-04-03T02:12:23;10.43;;;2.97;;
59388;SDS011;51830;45.202;19.720;2023-04-03T02:14:49;10.27;;;3.35;;
59388;SDS011;51830;45.202;19.720;2023-04-03T02:17:15;13.40;;;4.43;;
59388;SDS011;51830;45.202;19.720;2023-04-03T02:19:41;14.55;;;4.10;;
59388;SDS011;51830;45.202;19.720;2023-04-03T02:22:08;13.60;;;4.30;;
59388;SDS011;51830;45.202;19.720;2023-04-03T02:24:34;14.10;;;4.75;;
59388;SDS011;51830;45.202;19.720;2023-04-03T02:27:00;13.25;;;4.05;;
59388;SDS011;51830;45.202;19.720;2023-04-03T02:29:27;15.00;;;4.35;;
59388;SDS011;51830;45.202;19.720;2023-04-03T02:31:53;15.40;;;4.72;;
59388;SDS011;51830;45.202;19.720;2023-04-03T02:34:19;16.40;;;4.85;;
59388;SDS011;51830;45.202;19.720;2023-04-03T02:36:46;16.05;;;4.90;;
59388;SDS011;51830;45.202;19.720;2023-04-03T02:39:12;14.43;;;4.03;;
59388;SDS011;51830;45.202;19.720;2023-04-03T02:41:38;18.20;;;6.13;;
59388;SDS011;51830;45.202;19.720;2023-04-03T02:44:05;14.93;;;4.97;;
59388;SDS011;51830;45.202;19.720;2023-04-03T02:46:32;14.18;;;4.78;;
59388;SDS011;51830;45.202;19.720;2023-04-03T02:48:58;20.83;;;5.85;;
59388;SDS011;51830;45.202;19.720;2023-04-03T02:51:25;14.65;;;4.60;;
59388;SDS011;51830;45.202;19.720;2023-04-03T02:53:51;15.68;;;5.20;;
59388;SDS011;51830;45.202;19.720;2023-04-03T02:56:17;14.32;;;4.47;;
59388;SDS011;51830;45.202;19.720;2023-04-03T02:58:45;16.25;;;5.38;;
59388;SDS011;51830;45.202;19.720;2023-04-03T03:01:12;15.02;;;4.25;;
59388;SDS011;51830;45.202;19.720;2023-04-03T03:03:39;19.67;;;6.93;;
59388;SDS011;51830;45.202;19.720;2023-04-03T03:06:06;16.27;;;5.47;;
59388;SDS011;51830;45.202;19.720;2023-04-03T03:08:33;16.83;;;4.93;;
59388;SDS011;51830;45.202;19.720;2023-04-03T03:11:00;14.07;;;3.83;;
59388;SDS011;51830;45.202;19.720;2023-04-03T03:13:26;13.15;;;4.10;;
59388;SDS011;51830;45.202;19.720;2023-04-03T03:15:53;13.55;;;4.45;;
59388;SDS011;51830;45.202;19.720;2023-04-03T03:18:19;13.77;;;3.95;;
59388;SDS011;51830;45.202;19.720;2023-04-03T03:20:45;15.32;;;4.63;;
59388;SDS011;51830;45.202;19.720;2023-04-03T03:23:12;19.50;;;4.38;;
59388;SDS011;51830;45.202;19.720;2023-04-03T03:25:38;15.40;;;4.47;;
59388;SDS011;51830;45.202;19.720;2023-04-03T03:28:05;17.02;;;5.38;;
59388;SDS011;51830;45.202;19.720;2023-04-03T03:30:31;17.38;;;5.65;;
59388;SDS011;51830;45.202;19.720;2023-04-03T03:32:57;16.77;;;4.47;;
59388;SDS011;51830;45.202;19.720;2023-04-03T03:35:23;14.32;;;5.05;;
59388;SDS011;51830;45.202;19.720;2023-04-03T03:37:50;13.80;;;4.50;;
59388;SDS011;51830;45.202;19.720;2023-04-03T03:40:16;12.35;;;3.65;;
59388;SDS011;51830;45.202;19.720;2023-04-03T03:42:42;14.90;;;4.82;;
59388;SDS011;51830;45.202;19.720;2023-04-03T03:45:08;15.00;;;4.95;;
59388;SDS011;51830;45.202;19.720;2023-04-03T03:47:35;14.45;;;4.43;;
59388;SDS011;51830;45.202;19.720;2023-04-03T03:50:01;18.63;;;5.15;;
59388;SDS011;51830;45.202;19.720;2023-04-03T03:52:27;15.63;;;5.07;;
59388;SDS011;51830;45.202;19.720;2023-04-03T03:54:55;17.08;;;4.95;;
59388;SDS011;51830;45.202;19.720;2023-04-03T03:57:21;21.80;;;6.88;;
59388;SDS011;51830;45.202;19.720;2023-04-03T03:59:48;14.68;;;4.53;;
59388;SDS011;51830;45.202;19.720;2023-04-03T04:02:15;12.38;;;4.22;;
59388;SDS011;51830;45.202;19.720;2023-04-03T04:04:41;17.00;;;5.18;;
59388;SDS011;51830;45.202;19.720;2023-04-03T04:07:07;14.95;;;4.65;;
59388;SDS011;51830;45.202;19.720;2023-04-03T04:09:34;8.35;;;3.05;;
59388;SDS011;51830;45.202;19.720;2023-04-03T04:12:00;13.75;;;4.70;;
59388;SDS011;51830;45.202;19.720;2023-04-03T04:14:26;16.05;;;4.40;;
59388;SDS011;51830;45.202;19.720;2023-04-03T04:16:52;13.30;;;4.32;;
59388;SDS011;51830;45.202;19.720;2023-04-03T04:19:18;9.98;;;3.70;;
59388;SDS011;51830;45.202;19.720;2023-04-03T04:21:45;14.68;;;4.97;;
59388;SDS011;51830;45.202;19.720;2023-04-03T04:24:11;14.75;;;5.10;;
59388;SDS011;51830;45.202;19.720;2023-04-03T04:26:38;12.95;;;4.30;;
59388;SDS011;51830;45.202;19.720;2023-04-03T04:29:05;13.38;;;4.22;;
59388;SDS011;51830;45.202;19.720;2023-04-03T04:31:31;14.35;;;4.55;;
59388;SDS011;51830;45.202;19.720;2023-04-03T04:33:57;13.40;;;4.38;;
59388;SDS011;51830;45.202;19.720;2023-04-03T04:36:23;14.52;;;4.72;;
59388;SDS011;51830;45.202;19.720;2023-04-03T04:38:49;15.73;;;4.85;;
59388;SDS011;51830;45.202;19.720;2023-04-03T04:41:19;22.38;;;5.97;;
59388;SDS011;51830;45.202;19.720;2023-04-03T04:43:48;17.10;;;6.20;;
59388;SDS011;51830;45.202;19.720;2023-04-03T04:46:14;19.02;;;6.93;;
59388;SDS011;51830;45.202;19.720;2023-04-03T04:48:40;13.35;;;4.07;;
59388;SDS011;51830;45.202;19.720;2023-04-03T04:51:06;17.17;;;5.90;;
59388;SDS011;51830;45.202;19.720;2023-04-03T04:53:32;16.00;;;5.95;;
59388;SDS011;51830;45.202;19.720;2023-04-03T04:55:59;19.35;;;6.10;;
59388;SDS011;51830;45.202;19.720;2023-04-03T04:58:25;25.80;;;6.35;;
59388;SDS011;51830;45.202;19.720;2023-04-03T05:01:01;17.27;;;5.57;;
59388;SDS011;51830;45.202;19.720;2023-04-03T05:03:28;18.63;;;6.53;;
59388;SDS011;51830;45.202;19.720;2023-04-03T05:05:54;18.42;;;6.65;;
59388;SDS011;51830;45.202;19.720;2023-04-03T05:08:21;17.90;;;6.20;;
59388;SDS011;51830;45.202;19.720;2023-04-03T05:10:47;17.80;;;6.35;;
59388;SDS011;51830;45.202;19.720;2023-04-03T05:13:14;16.42;;;5.95;;
59388;SDS011;51830;45.202;19.720;2023-04-03T05:15:40;19.63;;;5.78;;
59388;SDS011;51830;45.202;19.720;2023-04-03T05:18:06;18.35;;;6.00;;
59388;SDS011;51830;45.202;19.720;2023-04-03T05:20:32;15.10;;;4.82;;
59388;SDS011;51830;45.202;19.720;2023-04-03T05:22:59;17.20;;;4.60;;
59388;SDS011;51830;45.202;19.720;2023-04-03T05:25:25;16.05;;;4.97;;
59388;SDS011;51830;45.202;19.720;2023-04-03T05:27:52;16.08;;;5.18;;
59388;SDS011;51830;45.202;19.720;2023-04-03T05:30:18;14.05;;;4.28;;
59388;SDS011;51830;45.202;19.720;2023-04-03T05:32:44;15.68;;;5.78;;
59388;SDS011;51830;45.202;19.720;2023-04-03T05:35:11;19.30;;;5.70;;
59388;SDS011;51830;45.202;19.720;2023-04-03T05:37:37;15.02;;;5.13;;
59388;SDS011;51830;45.202;19.720;2023-04-03T05:40:04;13.07;;;4.50;;
59388;SDS011;51830;45.202;19.720;2023-04-03T05:42:31;9.95;;;3.33;;
59388;SDS011;51830;45.202;19.720;2023-04-03T05:44:58;16.90;;;4.95;;
59388;SDS011;51830;45.202;19.720;2023-04-03T05:47:24;10.90;;;3.95;;
59388;SDS011;51830;45.202;19.720;2023-04-03T05:49:50;12.00;;;3.20;;
59388;SDS011;51830;45.202;19.720;2023-04-03T05:52:26;11.00;;;3.30;;
59388;SDS011;51830;45.202;19.720;2023-04-03T05:54:54;9.45;;;2.83;;
59388;SDS011;51830;45.202;19.720;2023-04-03T05:57:20;7.97;;;2.55;;
59388;SDS011;51830;45.202;19.720;2023-04-03T05:59:47;9.27;;;2.60;;
59388;SDS011;51830;45.202;19.720;2023-04-03T06:02:14;8.98;;;2.75;;
59388;SDS011;51830;45.202;19.720;2023-04-03T06:04:40;9.27;;;2.67;;
59388;SDS011;51830;45.202;19.720;2023-04-03T06:07:08;11.45;;;3.60;;
59388;SDS011;51830;45.202;19.720;2023-04-03T06:09:36;11.10;;;2.92;;
59388;SDS011;51830;45.202;19.720;2023-04-03T06:12:02;8.30;;;2.70;;
59388;SDS011;51830;45.202;19.720;2023-04-03T06:14:28;8.93;;;2.50;;
59388;SDS011;51830;45.202;19.720;2023-04-03T06:16:54;5.80;;;2.15;;
59388;SDS011;51830;45.202;19.720;2023-04-03T06:19:21;6.72;;;2.42;;
59388;SDS011;51830;45.202;19.720;2023-04-03T06:21:47;9.65;;;2.60;;
59388;SDS011;51830;45.202;19.720;2023-04-03T06:24:14;8.50;;;2.75;;
59388;SDS011;51830;45.202;19.720;2023-04-03T06:26:42;9.57;;;2.75;;
59388;SDS011;51830;45.202;19.720;2023-04-03T06:29:08;11.35;;;2.92;;
59388;SDS011;51830;45.202;19.720;2023-04-03T06:31:34;16.10;;;3.03;;
59388;SDS011;51830;45.202;19.720;2023-04-03T06:34:04;10.43;;;2.72;;
59388;SDS011;51830;45.202;19.720;2023-04-03T06:36:32;11.32;;;2.92;;
59388;SDS011;51830;45.202;19.720;2023-04-03T06:39:00;10.93;;;2.85;;
59388;SDS011;51830;45.202;19.720;2023-04-03T06:41:28;8.80;;;2.53;;
59388;SDS011;51830;45.202;19.720;2023-04-03T06:43:54;9.73;;;2.92;;
59388;SDS011;51830;45.202;19.720;2023-04-03T06:46:22;8.23;;;2.30;;
59388;SDS011;51830;45.202;19.720;2023-04-03T06:48:49;4.28;;;1.63;;
59388;SDS011;51830;45.202;19.720;2023-04-03T06:51:22;8.82;;;2.50;;
59388;SDS011;51830;45.202;19.720;2023-04-03T06:53:49;8.95;;;2.50;;
59388;SDS011;51830;45.202;19.720;2023-04-03T06:56:16;9.88;;;2.75;;
59388;SDS011;51830;45.202;19.720;2023-04-03T06:58:42;11.25;;;3.50;;
59388;SDS011;51830;45.202;19.720;2023-04-03T07:01:09;10.07;;;2.70;;
59388;SDS011;51830;45.202;19.720;2023-04-03T07:03:36;16.20;;;3.10;;
59388;SDS011;51830;45.202;19.720;2023-04-03T07:06:03;11.82;;;3.10;;
59388;SDS011;51830;45.202;19.720;2023-04-03T07:08:29;9.23;;;2.70;;
59388;SDS011;51830;45.202;19.720;2023-04-03T07:10:55;7.13;;;2.30;;
59388;SDS011;51830;45.202;19.720;2023-04-03T07:13:21;6.38;;;2.15;;
59388;SDS011;51830;45.202;19.720;2023-04-03T07:15:47;10.90;;;2.53;;
59388;SDS011;51830;45.202;19.720;2023-04-03T07:18:15;6.85;;;2.10;;
59388;SDS011;51830;45.202;19.720;2023-04-03T07:20:42;15.02;;;4.25;;
59388;SDS011;51830;45.202;19.720;2023-04-03T07:23:08;14.23;;;4.25;;
59388;SDS011;51830;45.202;19.720;2023-04-03T07:25:34;18.70;;;4.53;;
59388;SDS011;51830;45.202;19.720;2023-04-03T07:28:00;16.45;;;4.22;;
59388;SDS011;51830;45.202;19.720;2023-04-03T07:30:27;18.05;;;5.53;;
59388;SDS011;51830;45.202;19.720;2023-04-03T07:32:53;17.48;;;5.00;;
59388;SDS011;51830;45.202;19.720;2023-04-03T07:35:19;18.88;;;5.10;;
59388;SDS011;51830;45.202;19.720;2023-04-03T07:37:45;13.32;;;3.95;;
59388;SDS011;51830;45.202;19.720;2023-04-03T07:40:11;14.20;;;4.45;;
59388;SDS011;51830;45.202;19.720;2023-04-03T07:42:37;15.23;;;4.68;;
59388;SDS011;51830;45.202;19.720;2023-04-03T07:45:03;14.95;;;4.80;;
59388;SDS011;51830;45.202;19.720;2023-04-03T07:47:30;14.13;;;4.07;;
59388;SDS011;51830;45.202;19.720;2023-04-03T07:49:56;18.02;;;5.35;;
59388;SDS011;51830;45.202;19.720;2023-04-03T07:52:23;16.70;;;4.85;;
59388;SDS011;51830;45.202;19.720;2023-04-03T07:54:49;11.48;;;3.50;;
59388;SDS011;51830;45.202;19.720;2023-04-03T07:57:15;15.80;;;4.18;;
59388;SDS011;51830;45.202;19.720;2023-04-03T07:59:41;12.23;;;3.97;;
59388;SDS011;51830;45.202;19.720;2023-04-03T08:02:11;12.68;;;4.43;;
59388;SDS011;51830;45.202;19.720;2023-04-03T08:04:37;14.20;;;4.20;;
59388;SDS011;51830;45.202;19.720;2023-04-03T08:07:03;14.13;;;4.50;;
59388;SDS011;51830;45.202;19.720;2023-04-03T08:09:30;15.40;;;4.80;;
59388;SDS011;51830;45.202;19.720;2023-04-03T08:11:57;16.45;;;5.07;;
59388;SDS011;51830;45.202;19.720;2023-04-03T08:14:23;16.30;;;4.80;;
59388;SDS011;51830;45.202;19.720;2023-04-03T08:16:49;15.68;;;4.10;;
59388;SDS011;51830;45.202;19.720;2023-04-03T08:19:16;12.60;;;3.72;;
59388;SDS011;51830;45.202;19.720;2023-04-03T08:21:43;16.30;;;4.28;;
59388;SDS011;51830;45.202;19.720;2023-04-03T08:24:10;14.63;;;4.63;;
59388;SDS011;51830;45.202;19.720;2023-04-03T08:26:36;12.57;;;3.50;;
59388;SDS011;51830;45.202;19.720;2023-04-03T08:29:03;15.02;;;4.32;;
59388;SDS011;51830;45.202;19.720;2023-04-03T08:31:29;15.52;;;4.97;;
59388;SDS011;51830;45.202;19.720;2023-04-03T08:33:56;17.58;;;5.00;;
59388;SDS011;51830;45.202;19.720;2023-04-03T08:36:24;17.50;;;4.43;;
59388;SDS011;51830;45.202;19.720;2023-04-03T08:38:51;14.32;;;3.78;;
59388;SDS011;51830;45.202;19.720;2023-04-03T08:41:24;15.38;;;4.47;;
59388;SDS011;51830;45.202;19.720;2023-04-03T08:44:03;10.15;;;2.80;;
59388;SDS011;51830;45.202;19.720;2023-04-03T08:47:18;11.95;;;3.30;;
59388;SDS011;51830;45.202;19.720;2023-04-03T08:49:25;12.23;;;2.92;;
59388;SDS011;51830;45.202;19.720;2023-04-03T08:51:52;10.38;;;2.85;;
59388;SDS011;51830;45.202;19.720;2023-04-03T08:54:29;11.80;;;2.95;;
59388;SDS011;51830;45.202;19.720;2023-04-03T08:56:56;8.38;;;2.33;;
59388;SDS011;51830;45.202;19.720;2023-04-03T08:59:28;11.02;;;2.72;;
59388;SDS011;51830;45.202;19.720;2023-04-03T09:01:56;5.72;;;1.45;;
59388;SDS011;51830;45.202;19.720;2023-04-03T09:04:23;8.63;;;2.30;;
59388;SDS011;51830;45.202;19.720;2023-04-03T09:06:54;6.93;;;2.20;;
59388;SDS011;51830;45.202;19.720;2023-04-03T09:09:36;10.38;;;2.75;;
59388;SDS011;51830;45.202;19.720;2023-04-03T09:14:44;12.68;;;2.95;;
59388;SDS011;51830;45.202;19.720;2023-04-03T09:20:02;6.05;;;2.17;;
59388;SDS011;51830;45.202;19.720;2023-04-03T09:22:31;8.68;;;2.08;;
59388;SDS011;51830;45.202;19.720;2023-04-03T09:24:59;8.98;;;2.50;;
59388;SDS011;51830;45.202;19.720;2023-04-03T09:27:27;10.57;;;2.58;;
59388;SDS011;51830;45.202;19.720;2023-04-03T09:29:54;8.98;;;2.55;;
59388;SDS011;51830;45.202;19.720;2023-04-03T09:32:28;5.40;;;1.80;;
59388;SDS011;51830;45.202;19.720;2023-04-03T09:34:56;8.25;;;2.30;;
59388;SDS011;51830;45.202;19.720;2023-04-03T09:37:42;9.02;;;2.28;;
59388;SDS011;51830;45.202;19.720;2023-04-03T09:42:59;8.10;;;2.35;;
59388;SDS011;51830;45.202;19.720;2023-04-03T09:45:27;13.25;;;4.00;;
59388;SDS011;51830;45.202;19.720;2023-04-03T09:48:15;16.08;;;4.90;;
59388;SDS011;51830;45.202;19.720;2023-04-03T09:50:54;15.90;;;4.57;;
59388;SDS011;51830;45.202;19.720;2023-04-03T09:53:36;15.32;;;3.85;;
59388;SDS011;51830;45.202;19.720;2023-04-03T09:56:04;16.98;;;3.90;;
59388;SDS011;51830;45.202;19.720;2023-04-03T09:59:05;13.88;;;4.05;;
59388;SDS011;51830;45.202;19.720;2023-04-03T10:01:36;15.32;;;4.43;;
59388;SDS011;51830;45.202;19.720;2023-04-03T10:04:10;15.75;;;4.88;;
59388;SDS011;51830;45.202;19.720;2023-04-03T10:06:40;11.55;;;3.60;;
59388;SDS011;51830;45.202;19.720;2023-04-03T10:09:19;13.82;;;3.85;;
59388;SDS011;51830;45.202;19.720;2023-04-03T10:14:27;13.95;;;3.88;;
59388;SDS011;51830;45.202;19.720;2023-04-03T10:19:43;16.23;;;4.77;;
59388;SDS011;51830;45.202;19.720;2023-04-03T10:27:42;14.63;;;4.43;;
59388;SDS011;51830;45.202;19.720;2023-04-03T10:43:18;14.38;;;4.32;;
59388;SDS011;51830;45.202;19.720;2023-04-03T10:53:35;15.20;;;4.50;;
59388;SDS011;51830;45.202;19.720;2023-04-03T10:56:18;15.85;;;4.90;;
59388;SDS011;51830;45.202;19.720;2023-04-03T10:59:49;16.75;;;4.40;;
59388;SDS011;51830;45.202;19.720;2023-04-03T11:01:44;16.98;;;4.47;;
59388;SDS011;51830;45.202;19.720;2023-04-03T11:04:11;15.68;;;4.80;;
59388;SDS011;51830;45.202;19.720;2023-04-03T11:06:39;16.90;;;4.75;;
59388;SDS011;51830;45.202;19.720;2023-04-03T11:09:10;14.35;;;4.22;;
59388;SDS011;51830;45.202;19.720;2023-04-03T11:11:41;16.88;;;4.95;;
59388;SDS011;51830;45.202;19.720;2023-04-03T11:14:15;14.13;;;4.32;;
59388;SDS011;51830;45.202;19.720;2023-04-03T11:16:47;11.85;;;3.75;;
59388;SDS011;51830;45.202;19.720;2023-04-03T11:19:20;14.68;;;4.45;;
59388;SDS011;51830;45.202;19.720;2023-04-03T11:22:00;13.80;;;3.97;;
59388;SDS011;51830;45.202;19.720;2023-04-03T11:24:29;15.15;;;4.45;;
59388;SDS011;51830;45.202;19.720;2023-04-03T11:26:57;18.75;;;4.57;;
59388;SDS011;51830;45.202;19.720;2023-04-03T11:29:26;16.95;;;4.93;;
59388;SDS011;51830;45.202;19.720;2023-04-03T11:34:36;14.57;;;3.90;;
59388;SDS011;51830;45.202;19.720;2023-04-03T11:37:13;11.80;;;3.47;;
59388;SDS011;51830;45.202;19.720;2023-04-03T11:39:39;14.77;;;4.13;;
59388;SDS011;51830;45.202;19.720;2023-04-03T11:42:34;14.45;;;4.40;;
59388;SDS011;51830;45.202;19.720;2023-04-03T11:47:58;16.33;;;4.68;;
59388;SDS011;51830;45.202;19.720;2023-04-03T11:53:01;15.50;;;4.18;;
59388;SDS011;51830;45.202;19.720;2023-04-03T12:05:50;10.60;;;3.15;;
59388;SDS011;51830;45.202;19.720;2023-04-03T12:08:29;13.40;;;3.90;;
59388;SDS011;51830;45.202;19.720;2023-04-03T12:13:38;14.70;;;4.10;;
59388;SDS011;51830;45.202;19.720;2023-04-03T12:16:05;20.67;;;4.18;;
59388;SDS011;51830;45.202;19.720;2023-04-03T12:18:41;12.55;;;3.55;;
59388;SDS011;51830;45.202;19.720;2023-04-03T12:21:08;10.18;;;3.08;;
59388;SDS011;51830;45.202;19.720;2023-04-03T12:23:36;13.07;;;3.42;;
59388;SDS011;51830;45.202;19.720;2023-04-03T12:26:19;12.00;;;3.08;;
59388;SDS011;51830;45.202;19.720;2023-04-03T12:28:47;14.57;;;4.15;;
59388;SDS011;51830;45.202;19.720;2023-04-03T12:31:14;15.02;;;3.88;;
59388;SDS011;51830;45.202;19.720;2023-04-03T12:39:35;10.25;;;2.72;;
59388;SDS011;51830;45.202;19.720;2023-04-03T12:47:31;11.15;;;3.17;;
59388;SDS011;51830;45.202;19.720;2023-04-03T12:50:01;15.07;;;4.28;;
59388;SDS011;51830;45.202;19.720;2023-04-03T12:54:57;19.77;;;5.32;;
59388;SDS011;51830;45.202;19.720;2023-04-03T12:57:25;19.27;;;6.15;;
59388;SDS011;51830;45.202;19.720;2023-04-03T12:59:52;15.00;;;4.05;;
59388;SDS011;51830;45.202;19.720;2023-04-03T13:02:31;16.92;;;4.80;;
59388;SDS011;51830;45.202;19.720;2023-04-03T13:05:06;31.35;;;11.40;;
59388;SDS011;51830;45.202;19.720;2023-04-03T13:07:33;14.70;;;4.65;;
59388;SDS011;51830;45.202;19.720;2023-04-03T13:12:35;15.82;;;4.57;;
59388;SDS011;51830;45.202;19.720;2023-04-03T13:15:10;18.70;;;7.22;;
59388;SDS011;51830;45.202;19.720;2023-04-03T13:17:43;13.68;;;3.97;;
59388;SDS011;51830;45.202;19.720;2023-04-03T13:22:56;14.32;;;4.00;;
59388;SDS011;51830;45.202;19.720;2023-04-03T13:25:23;12.27;;;3.33;;
59388;SDS011;51830;45.202;19.720;2023-04-03T13:27:50;14.23;;;4.05;;
59388;SDS011;51830;45.202;19.720;2023-04-03T13:32:52;15.82;;;4.38;;
59388;SDS011;51830;45.202;19.720;2023-04-03T13:35:26;21.25;;;4.53;;
59388;SDS011;51830;45.202;19.720;2023-04-03T13:37:56;15.27;;;4.50;;
59388;SDS011;51830;45.202;19.720;2023-04-03T13:40:22;16.60;;;4.18;;
59388;SDS011;51830;45.202;19.720;2023-04-03T13:42:59;13.35;;;3.15;;
59388;SDS011;51830;45.202;19.720;2023-04-03T13:45:26;14.98;;;3.70;;
59388;SDS011;51830;45.202;19.720;2023-04-03T13:50:48;15.05;;;4.45;;
59388;SDS011;51830;45.202;19.720;2023-04-03T13:53:15;14.65;;;4.22;;
59388;SDS011;51830;45.202;19.720;2023-04-03T13:58:25;14.07;;;3.88;;
59388;SDS011;51830;45.202;19.720;2023-04-03T14:00:53;15.63;;;4.40;;
59388;SDS011;51830;45.202;19.720;2023-04-03T14:03:21;12.05;;;3.17;;
59388;SDS011;51830;45.202;19.720;2023-04-03T14:05:47;12.68;;;3.42;;
59388;SDS011;51830;45.202;19.720;2023-04-03T14:08:13;16.02;;;3.70;;
59388;SDS011;51830;45.202;19.720;2023-04-03T14:10:41;18.48;;;5.68;;
59388;SDS011;51830;45.202;19.720;2023-04-03T14:13:09;14.95;;;4.57;;
59388;SDS011;51830;45.202;19.720;2023-04-03T14:15:35;13.65;;;4.00;;
59388;SDS011;51830;45.202;19.720;2023-04-03T14:18:01;13.52;;;3.38;;
59388;SDS011;51830;45.202;19.720;2023-04-03T14:20:27;17.95;;;4.07;;
59388;SDS011;51830;45.202;19.720;2023-04-03T14:22:54;11.90;;;3.22;;
59388;SDS011;51830;45.202;19.720;2023-04-03T14:25:20;18.02;;;4.43;;
59388;SDS011;51830;45.202;19.720;2023-04-03T14:27:49;18.02;;;4.25;;
59388;SDS011;51830;45.202;19.720;2023-04-03T14:30:32;16.20;;;3.78;;
59388;SDS011;51830;45.202;19.720;2023-04-03T14:32:59;12.98;;;3.47;;
59388;SDS011;51830;45.202;19.720;2023-04-03T14:35:26;9.75;;;2.70;;
59388;SDS011;51830;45.202;19.720;2023-04-03T14:37:53;21.85;;;6.28;;
59388;SDS011;51830;45.202;19.720;2023-04-03T14:40:21;26.00;;;9.20;;
59388;SDS011;51830;45.202;19.720;2023-04-03T14:42:47;20.88;;;5.10;;
59388;SDS011;51830;45.202;19.720;2023-04-03T14:45:14;17.88;;;5.53;;
59388;SDS011;51830;45.202;19.720;2023-04-03T14:47:51;17.23;;;4.68;;
59388;SDS011;51830;45.202;19.720;2023-04-03T14:50:19;17.27;;;4.63;;
59388;SDS011;51830;45.202;19.720;2023-04-03T14:52:46;17.90;;;5.55;;
59388;SDS011;51830;45.202;19.720;2023-04-03T14:55:14;19.65;;;5.40;;
59388;SDS011;51830;45.202;19.720;2023-04-03T14:57:40;17.30;;;5.38;;
59388;SDS011;51830;45.202;19.720;2023-04-03T15:00:07;18.52;;;4.53;;
59388;SDS011;51830;45.202;19.720;2023-04-03T15:02:34;12.35;;;3.47;;
59388;SDS011;51830;45.202;19.720;2023-04-03T15:05:02;12.18;;;2.42;;
59388;SDS011;51830;45.202;19.720;2023-04-03T15:07:30;14.57;;;2.92;;
59388;SDS011;51830;45.202;19.720;2023-04-03T15:09:56;9.63;;;2.63;;
59388;SDS011;51830;45.202;19.720;2023-04-03T15:12:24;13.15;;;3.70;;
59388;SDS011;51830;45.202;19.720;2023-04-03T15:14:50;9.32;;;2.53;;
59388;SDS011;51830;45.202;19.720;2023-04-03T15:17:17;10.65;;;2.60;;
59388;SDS011;51830;45.202;19.720;2023-04-03T15:19:45;3.92;;;1.67;;
59388;SDS011;51830;45.202;19.720;2023-04-03T15:22:16;10.77;;;2.90;;
59388;SDS011;51830;45.202;19.720;2023-04-03T15:24:42;17.10;;;2.80;;
59388;SDS011;51830;45.202;19.720;2023-04-03T15:27:08;10.65;;;2.75;;
59388;SDS011;51830;45.202;19.720;2023-04-03T15:29:35;8.98;;;2.65;;
59388;SDS011;51830;45.202;19.720;2023-04-03T15:32:01;7.93;;;2.00;;
59388;SDS011;51830;45.202;19.720;2023-04-03T15:34:28;6.38;;;2.15;;
59388;SDS011;51830;45.202;19.720;2023-04-03T15:36:54;6.57;;;2.28;;
59388;SDS011;51830;45.202;19.720;2023-04-03T15:39:20;18.70;;;6.05;;
59388;SDS011;51830;45.202;19.720;2023-04-03T15:41:48;16.95;;;4.97;;
59388;SDS011;51830;45.202;19.720;2023-04-03T15:44:14;14.70;;;4.28;;
59388;SDS011;51830;45.202;19.720;2023-04-03T15:46:42;14.95;;;3.97;;
59388;SDS011;51830;45.202;19.720;2023-04-03T15:49:08;15.52;;;4.20;;
59388;SDS011;51830;45.202;19.720;2023-04-03T15:51:35;18.30;;;6.07;;
59388;SDS011;51830;45.202;19.720;2023-04-03T15:54:01;16.08;;;4.65;;
59388;SDS011;51830;45.202;19.720;2023-04-03T15:56:27;13.50;;;2.90;;
59388;SDS011;51830;45.202;19.720;2023-04-03T15:58:53;15.77;;;4.03;;
59388;SDS011;51830;45.202;19.720;2023-04-03T16:01:20;13.60;;;4.15;;